createdAt,value
2022-10-17T00:01:36.662Z,29.48
2022-10-17T00:04:03.677Z,30.83
2022-10-17T00:06:30.685Z,30.77
2022-10-17T00:08:57.657Z,30.90
2022-10-17T00:11:24.951Z,31.45
2022-10-17T00:13:54.985Z,31.25
2022-10-17T00:16:34.131Z,32.65
2022-10-17T00:19:01.090Z,31.40
2022-10-17T00:21:28.014Z,31.67
2022-10-17T00:23:55.310Z,31.92
2022-10-17T00:26:22.311Z,31.48
2022-10-17T00:28:50.810Z,31.77
2022-10-17T00:31:19.872Z,31.15
2022-10-17T00:33:47.764Z,30.73
2022-10-17T00:36:20.047Z,31.23
2022-10-17T00:38:50.561Z,31.15
2022-10-17T00:41:19.751Z,32.67
2022-10-17T00:44:06.875Z,32.78
2022-10-17T00:46:38.863Z,33.30
2022-10-17T00:49:10.270Z,33.17
2022-10-17T00:51:46.865Z,34.15
2022-10-17T00:54:16.169Z,32.05
2022-10-17T00:56:44.924Z,32.83
2022-10-17T00:59:13.691Z,34.05
2022-10-17T01:01:42.649Z,31.90
2022-10-17T01:04:10.180Z,31.63
2022-10-17T01:06:37.038Z,31.27
2022-10-17T01:09:04.376Z,32.38
2022-10-17T01:12:06.684Z,31.23
2022-10-17T01:14:51.440Z,31.77
2022-10-17T01:17:39.954Z,30.55
2022-10-17T01:20:25.535Z,30.48
2022-10-17T01:23:07.273Z,31.85
2022-10-17T01:25:51.981Z,32.50
2022-10-17T01:28:27.232Z,31.88
2022-10-17T01:31:13.652Z,32.05
2022-10-17T01:33:49.616Z,31.25
2022-10-17T01:36:30.699Z,31.52
2022-10-17T01:39:17.211Z,29.25
2022-10-17T01:41:50.230Z,30.17
2022-10-17T01:47:07.914Z,29.15
2022-10-17T01:49:37.656Z,30.05
2022-10-17T01:52:12.207Z,28.90
2022-10-17T01:54:41.379Z,28.95
2022-10-17T01:57:15.033Z,28.85
2022-10-17T01:59:46.602Z,30.35
2022-10-17T02:02:15.928Z,29.98
2022-10-17T02:04:43.499Z,29.23
2022-10-17T02:07:12.474Z,30.25
2022-10-17T02:09:39.879Z,28.05
2022-10-17T02:12:51.153Z,28.92
2022-10-17T02:15:18.043Z,28.48
2022-10-17T02:18:10.209Z,28.05
2022-10-17T02:20:57.010Z,29.38
2022-10-17T02:23:53.926Z,29.30
2022-10-17T02:26:28.307Z,30.05
2022-10-17T02:29:08.032Z,30.60
2022-10-17T02:31:40.052Z,30.92
2022-10-17T02:34:16.785Z,30.60
2022-10-17T02:36:49.207Z,31.85
2022-10-17T02:39:17.052Z,32.20
2022-10-17T02:41:46.108Z,30.52
2022-10-17T02:44:13.052Z,29.52
2022-10-17T02:46:41.625Z,29.80
2022-10-17T02:49:31.648Z,28.35
2022-10-17T02:52:04.053Z,30.23
2022-10-17T02:54:50.750Z,30.40
2022-10-17T02:58:00.623Z,28.88
2022-10-17T03:00:30.017Z,28.80
2022-10-17T03:02:57.083Z,28.15
2022-10-17T03:05:29.478Z,28.40
2022-10-17T03:07:57.053Z,29.13
2022-10-17T03:10:24.042Z,28.67
2022-10-17T03:12:51.001Z,28.38
2022-10-17T03:15:17.963Z,29.25
2022-10-17T03:20:12.664Z,29.05
2022-10-17T03:22:39.657Z,27.45
2022-10-17T03:25:07.300Z,28.52
2022-10-17T03:27:34.204Z,28.15
2022-10-17T03:30:01.101Z,27.67
2022-10-17T03:32:28.001Z,27.45
2022-10-17T03:34:54.904Z,30.17
2022-10-17T03:37:21.850Z,31.25
2022-10-17T03:39:48.736Z,29.92
2022-10-17T03:42:15.625Z,29.77
2022-10-17T03:44:42.603Z,32.22
2022-10-17T03:47:11.920Z,29.25
2022-10-17T03:49:41.061Z,31.35
2022-10-17T03:52:15.078Z,31.65
2022-10-17T03:54:42.330Z,30.42
2022-10-17T03:57:09.223Z,31.50
2022-10-17T03:59:36.152Z,31.00
2022-10-17T04:02:03.113Z,31.75
2022-10-17T04:04:30.305Z,30.90
2022-10-17T04:06:57.207Z,27.83
2022-10-17T04:09:24.117Z,29.48
2022-10-17T04:11:51.007Z,29.90
2022-10-17T04:14:18.142Z,28.75
2022-10-17T04:16:45.059Z,29.85
2022-10-17T04:19:14.026Z,29.98
2022-10-17T04:21:41.042Z,29.95
2022-10-17T04:24:11.916Z,30.75
2022-10-17T04:26:38.857Z,29.25
2022-10-17T04:29:05.807Z,29.98
2022-10-17T04:31:32.702Z,29.90
2022-10-17T04:33:59.562Z,28.55
2022-10-17T04:36:26.458Z,29.25
2022-10-17T04:38:53.314Z,28.85
2022-10-17T04:41:20.355Z,29.58
2022-10-17T04:43:50.985Z,28.05
2022-10-17T04:46:18.839Z,31.20
2022-10-17T04:48:45.773Z,28.40
2022-10-17T04:51:20.629Z,29.00
2022-10-17T04:56:31.121Z,28.38
2022-10-17T04:58:59.802Z,27.45
2022-10-17T05:01:27.210Z,26.45
2022-10-17T05:03:54.318Z,27.30
2022-10-17T05:06:24.519Z,26.95
2022-10-17T05:08:51.416Z,27.27
2022-10-17T05:11:26.881Z,27.27
2022-10-17T05:13:56.680Z,31.27
2022-10-17T05:16:24.501Z,31.27
2022-10-17T05:18:53.638Z,28.75
2022-10-17T05:21:21.590Z,28.75
2022-10-17T05:23:48.509Z,33.67
2022-10-17T05:26:15.854Z,30.58
2022-10-17T05:28:42.806Z,29.15
2022-10-17T05:31:11.439Z,31.52
2022-10-17T05:33:39.234Z,30.73
2022-10-17T05:36:07.432Z,35.53
2022-10-17T05:38:34.604Z,35.35
2022-10-17T05:41:04.158Z,51.60
2022-10-17T05:43:31.805Z,39.08
2022-10-17T05:45:58.791Z,42.08
2022-10-17T05:48:25.740Z,36.65
2022-10-17T05:51:03.766Z,37.60
2022-10-17T05:53:32.569Z,35.72
2022-10-17T05:56:01.575Z,35.53
2022-10-17T06:01:16.179Z,35.70
2022-10-17T06:03:43.195Z,34.05
2022-10-17T06:06:12.494Z,34.83
2022-10-17T06:08:39.774Z,36.83
2022-10-17T06:11:54.710Z,33.67
2022-10-17T06:14:21.852Z,32.28
2022-10-17T06:16:48.732Z,33.05
2022-10-17T06:19:15.703Z,32.25
2022-10-17T06:21:42.690Z,31.10
2022-10-17T06:24:09.620Z,31.42
2022-10-17T06:26:36.561Z,31.58
2022-10-17T06:29:03.913Z,31.73
2022-10-17T06:31:31.060Z,31.05
2022-10-17T06:33:57.955Z,31.77
2022-10-17T06:36:24.959Z,31.40
2022-10-17T06:38:51.884Z,31.17
2022-10-17T06:41:19.497Z,32.25
2022-10-17T06:43:47.322Z,34.13
2022-10-17T06:46:18.765Z,31.98
2022-10-17T06:48:46.182Z,32.53
2022-10-17T06:51:13.558Z,31.70
2022-10-17T06:53:40.922Z,31.98
2022-10-17T06:56:09.566Z,31.00
2022-10-17T06:58:39.765Z,33.45
2022-10-17T07:03:41.481Z,34.80
2022-10-17T07:06:11.031Z,33.25
2022-10-17T07:08:38.739Z,35.72
2022-10-17T07:11:16.961Z,32.90
2022-10-17T07:13:44.465Z,32.05
2022-10-17T07:16:11.551Z,31.10
2022-10-17T07:18:38.873Z,31.02
2022-10-17T07:21:06.688Z,31.05
2022-10-17T07:23:36.648Z,30.00
2022-10-17T07:26:08.721Z,30.27
2022-10-17T07:28:37.422Z,31.85
2022-10-17T07:31:09.941Z,31.20
2022-10-17T07:33:37.040Z,31.30
2022-10-17T07:36:05.345Z,34.35
2022-10-17T07:38:32.553Z,32.83
2022-10-17T07:41:01.861Z,31.05
2022-10-17T07:43:29.458Z,30.80
2022-10-17T07:45:56.748Z,32.20
2022-10-17T07:48:24.872Z,31.83
2022-10-17T07:50:51.957Z,31.73
2022-10-17T07:53:19.484Z,34.42
2022-10-17T07:55:48.007Z,37.20
2022-10-17T07:58:15.495Z,38.47
2022-10-17T08:00:42.684Z,38.42
2022-10-17T08:03:10.992Z,38.45
2022-10-17T08:05:40.937Z,35.47
2022-10-17T08:08:07.919Z,42.85
2022-10-17T08:10:34.803Z,45.08
2022-10-17T08:13:02.377Z,38.15
2022-10-17T08:15:31.835Z,34.85
2022-10-17T08:17:59.659Z,35.20
2022-10-17T08:20:27.076Z,31.23
2022-10-17T08:22:55.378Z,30.38
2022-10-17T08:25:22.991Z,34.20
2022-10-17T08:27:50.273Z,37.88
2022-10-17T08:30:17.614Z,41.22
2022-10-17T08:32:44.587Z,41.17
2022-10-17T08:35:11.656Z,41.58
2022-10-17T08:37:38.652Z,49.35
2022-10-17T08:40:06.081Z,47.67
2022-10-17T08:42:42.031Z,51.42
2022-10-17T08:45:14.867Z,40.40
2022-10-17T08:47:50.335Z,32.25
2022-10-17T08:50:26.227Z,29.58
2022-10-17T08:52:58.291Z,40.47
2022-10-17T08:55:41.291Z,41.38
2022-10-17T08:58:34.214Z,29.65
2022-10-17T09:01:12.703Z,25.42
2022-10-17T09:03:43.787Z,25.48
2022-10-17T09:06:17.991Z,25.08
2022-10-17T09:09:06.907Z,24.13
2022-10-17T09:12:01.240Z,27.15
2022-10-17T09:14:38.063Z,24.52
2022-10-17T09:17:12.753Z,24.17
2022-10-17T09:20:05.743Z,23.58
2022-10-17T09:22:52.071Z,25.08
2022-10-17T09:25:22.289Z,24.70
2022-10-17T09:27:53.892Z,23.92
2022-10-17T09:30:45.574Z,25.60
2022-10-17T09:33:35.657Z,24.05
2022-10-17T09:36:19.513Z,23.85
2022-10-17T09:38:53.841Z,22.00
2022-10-17T09:44:58.202Z,24.35
2022-10-17T09:48:03.283Z,23.30
2022-10-17T09:50:34.212Z,25.13
2022-10-17T09:53:15.408Z,23.70
2022-10-17T09:55:51.775Z,22.23
2022-10-17T09:58:22.121Z,21.60
2022-10-17T10:00:50.606Z,21.80
2022-10-17T10:03:17.561Z,23.52
2022-10-17T10:05:59.444Z,23.08
2022-10-17T10:08:35.611Z,24.07
2022-10-17T10:11:06.583Z,21.95
2022-10-17T10:13:35.881Z,22.75
2022-10-17T10:16:24.422Z,20.88
2022-10-17T10:18:53.072Z,22.92
2022-10-17T10:21:22.508Z,22.10
2022-10-17T10:24:05.504Z,22.55
2022-10-17T10:26:46.140Z,21.77
2022-10-17T10:29:34.413Z,23.42
2022-10-17T10:32:21.676Z,21.85
2022-10-17T10:35:04.029Z,22.17
2022-10-17T10:37:43.675Z,22.42
2022-10-17T10:40:18.046Z,23.88
2022-10-17T10:42:50.255Z,21.85
2022-10-17T10:45:42.831Z,23.00
2022-10-17T10:48:33.923Z,24.80
2022-10-17T10:51:32.560Z,23.60
2022-10-17T10:54:06.025Z,21.77
2022-10-17T10:56:44.334Z,24.13
2022-10-17T10:59:28.414Z,23.63
2022-10-17T11:02:03.057Z,23.23
2022-10-17T11:04:35.941Z,22.67
2022-10-17T11:07:20.317Z,21.17
2022-10-17T11:10:09.492Z,22.13
2022-10-17T11:12:36.421Z,21.70
2022-10-17T11:15:15.344Z,22.10
2022-10-17T11:18:08.480Z,21.80
2022-10-17T11:21:00.456Z,22.40
2022-10-17T11:23:38.702Z,22.63
2022-10-17T11:26:13.994Z,22.40
2022-10-17T11:28:40.996Z,22.85
2022-10-17T11:31:12.855Z,20.70
2022-10-17T11:33:51.997Z,21.20
2022-10-17T11:36:22.344Z,21.92
2022-10-17T11:38:57.844Z,21.77
2022-10-17T11:41:41.729Z,21.98
2022-10-17T11:44:25.258Z,22.00
2022-10-17T11:47:04.476Z,19.15
2022-10-17T11:49:40.700Z,19.25
2022-10-17T11:52:37.806Z,18.65
2022-10-17T11:55:23.858Z,19.23
2022-10-17T11:57:56.895Z,19.00
2022-10-17T12:00:52.973Z,20.35
2022-10-17T12:03:26.296Z,19.08
2022-10-17T12:06:07.207Z,18.73
2022-10-17T12:08:49.287Z,19.60
2022-10-17T12:11:21.670Z,19.63
2022-10-17T12:13:48.562Z,19.15
2022-10-17T12:16:21.222Z,18.95
2022-10-17T12:18:52.147Z,18.30
2022-10-17T12:21:19.096Z,19.30
2022-10-17T12:23:55.988Z,19.35
2022-10-17T12:26:28.102Z,18.85
2022-10-17T12:28:56.555Z,19.25
2022-10-17T12:31:29.714Z,18.15
2022-10-17T12:34:05.223Z,18.75
2022-10-17T12:36:32.086Z,18.58
2022-10-17T12:39:02.100Z,17.90
2022-10-17T12:41:41.525Z,17.70
2022-10-17T12:44:14.927Z,18.25
2022-10-17T12:46:52.816Z,17.27
2022-10-17T12:49:54.418Z,17.13
2022-10-17T12:52:27.046Z,17.52
2022-10-17T12:55:11.421Z,16.58
2022-10-17T12:57:41.537Z,15.77
2022-10-17T13:00:23.659Z,15.70
2022-10-17T13:02:54.372Z,15.55
2022-10-17T13:05:27.447Z,15.57
2022-10-17T13:07:56.022Z,15.43
2022-10-17T13:10:28.288Z,14.52
2022-10-17T13:13:12.065Z,14.93
2022-10-17T13:15:39.023Z,14.55
2022-10-17T13:18:06.435Z,15.32
2022-10-17T13:20:33.571Z,14.32
2022-10-17T13:23:00.842Z,14.52
2022-10-17T13:25:28.688Z,15.48
2022-10-17T13:28:13.495Z,15.20
2022-10-17T13:30:45.796Z,15.02
2022-10-17T13:33:32.883Z,14.80
2022-10-17T13:36:01.659Z,14.52
2022-10-17T13:38:32.697Z,14.80
2022-10-17T13:41:30.022Z,14.65
2022-10-17T13:43:48.436Z,13.95
2022-10-17T13:46:37.440Z,13.57
2022-10-17T13:49:20.061Z,13.30
2022-10-17T13:51:54.015Z,13.20
2022-10-17T13:54:35.198Z,13.80
2022-10-17T13:57:03.531Z,13.50
2022-10-17T13:59:41.233Z,12.73
2022-10-17T14:02:16.349Z,12.75
2022-10-17T14:05:16.122Z,13.27
2022-10-17T14:08:16.792Z,13.45
2022-10-17T14:10:45.325Z,13.90
2022-10-17T14:13:22.824Z,13.73
2022-10-17T14:15:50.141Z,13.40
2022-10-17T14:18:34.941Z,14.90
2022-10-17T14:23:53.345Z,16.08
2022-10-17T14:26:23.072Z,15.70
2022-10-17T14:29:18.198Z,16.63
2022-10-17T14:31:45.065Z,16.50
2022-10-17T14:34:28.084Z,15.85
2022-10-17T14:36:55.456Z,15.90
2022-10-17T14:39:24.967Z,15.68
2022-10-17T14:41:53.111Z,15.68
2022-10-17T14:44:32.754Z,15.27
2022-10-17T14:47:30.357Z,15.70
2022-10-17T14:49:52.396Z,17.52
2022-10-17T14:52:19.365Z,16.77
2022-10-17T14:54:49.908Z,17.20
2022-10-17T14:57:32.037Z,17.45
2022-10-17T14:59:59.417Z,17.52
2022-10-17T15:02:29.110Z,16.60
2022-10-17T15:04:56.470Z,18.23
2022-10-17T15:07:24.174Z,18.02
2022-10-17T15:09:52.999Z,18.20
2022-10-17T15:12:22.371Z,18.83
2022-10-17T15:14:50.770Z,19.17
2022-10-17T15:17:24.057Z,20.23
2022-10-17T15:19:51.015Z,20.23
2022-10-17T15:22:18.403Z,19.67
2022-10-17T15:24:46.355Z,20.38
2022-10-17T15:27:22.217Z,20.20
2022-10-17T15:29:50.555Z,19.90
2022-10-17T15:32:17.630Z,23.92
2022-10-17T15:34:44.756Z,24.73
2022-10-17T15:37:22.336Z,22.75
2022-10-17T15:39:54.804Z,21.75
2022-10-17T15:42:26.790Z,21.20
2022-10-17T15:44:54.038Z,22.27
2022-10-17T15:47:35.483Z,23.00
2022-10-17T15:50:02.620Z,22.38
2022-10-17T15:52:29.657Z,22.40
2022-10-17T15:54:58.510Z,24.83
2022-10-17T15:57:31.383Z,25.52
2022-10-17T15:59:59.970Z,28.02
2022-10-17T16:02:27.401Z,26.38
2022-10-17T16:04:54.404Z,26.10
2022-10-17T16:07:21.906Z,28.77
2022-10-17T16:09:48.927Z,30.50
2022-10-17T16:12:28.364Z,30.77
2022-10-17T16:14:55.606Z,28.00
2022-10-17T16:17:22.502Z,32.00
2022-10-17T16:19:50.082Z,30.45
2022-10-17T16:22:33.271Z,33.30
2022-10-17T16:25:07.849Z,36.60
2022-10-17T16:27:35.438Z,41.85
2022-10-17T16:30:03.755Z,37.15
2022-10-17T16:32:31.131Z,35.10
2022-10-17T16:34:59.997Z,36.47
2022-10-17T16:37:27.264Z,39.50
2022-10-17T16:39:54.382Z,37.90
2022-10-17T16:42:21.412Z,38.45
2022-10-17T16:44:49.570Z,34.83
2022-10-17T16:47:18.199Z,35.53
2022-10-17T16:49:45.586Z,35.35
2022-10-17T16:52:13.005Z,35.80
2022-10-17T16:54:39.986Z,33.05
2022-10-17T16:57:06.848Z,33.13
2022-10-17T16:59:33.790Z,28.50
2022-10-17T17:02:00.689Z,29.40
2022-10-17T17:04:27.903Z,33.80
2022-10-17T17:06:54.838Z,32.20
2022-10-17T17:09:21.750Z,31.85
2022-10-17T17:11:49.225Z,33.65
2022-10-17T17:14:16.224Z,32.00
2022-10-17T17:16:43.827Z,33.35
2022-10-17T17:19:13.660Z,31.38
2022-10-17T17:21:42.006Z,31.05
2022-10-17T17:24:09.294Z,31.55
2022-10-17T17:26:36.307Z,30.73
2022-10-17T17:29:03.645Z,31.77
2022-10-17T17:31:33.886Z,31.30
2022-10-17T17:34:01.818Z,30.73
2022-10-17T17:36:35.535Z,32.92
2022-10-17T17:39:11.809Z,32.53
2022-10-17T17:41:40.227Z,34.05
2022-10-17T17:44:11.219Z,33.20
2022-10-17T17:46:43.724Z,33.53
2022-10-17T17:49:11.625Z,32.42
2022-10-17T17:51:39.176Z,34.20
2022-10-17T17:54:11.521Z,36.10
2022-10-17T17:56:38.943Z,34.92
2022-10-17T17:59:05.874Z,33.72
2022-10-17T18:01:38.817Z,39.67
2022-10-17T18:04:08.815Z,37.33
2022-10-17T18:06:37.461Z,35.80
2022-10-17T18:09:06.131Z,38.67
2022-10-17T18:11:33.547Z,39.58
2022-10-17T18:14:03.003Z,40.63
2022-10-17T18:16:31.751Z,38.58
2022-10-17T18:19:04.094Z,38.45
2022-10-17T18:21:34.011Z,41.83
2022-10-17T18:24:01.062Z,42.50
2022-10-17T18:26:28.566Z,39.72
2022-10-17T18:28:55.509Z,38.03
2022-10-17T18:31:28.293Z,38.97
2022-10-17T18:36:24.053Z,38.97
2022-10-17T18:38:51.022Z,38.95
2022-10-17T18:41:20.200Z,41.55
2022-10-17T18:43:48.917Z,41.35
2022-10-17T18:46:18.936Z,41.65
2022-10-17T18:48:47.190Z,42.63
2022-10-17T18:51:15.860Z,55.92
2022-10-17T18:53:45.431Z,52.03
2022-10-17T18:56:13.469Z,45.03
2022-10-17T18:58:41.511Z,40.75
2022-10-17T19:01:11.868Z,41.95
2022-10-17T19:03:38.793Z,41.75
2022-10-17T19:06:07.862Z,43.20
2022-10-17T19:08:35.697Z,40.90
2022-10-17T19:11:24.170Z,39.15
2022-10-17T19:13:52.221Z,40.92
2022-10-17T19:16:30.753Z,37.35
2022-10-17T19:19:04.457Z,36.83
2022-10-17T19:21:32.192Z,39.25
2022-10-17T19:24:01.628Z,35.67
2022-10-17T19:26:31.316Z,37.17
2022-10-17T19:29:00.543Z,39.33
2022-10-17T19:31:29.684Z,36.50
2022-10-17T19:33:57.727Z,35.08
2022-10-17T19:36:30.559Z,33.97
2022-10-17T19:39:03.349Z,35.70
2022-10-17T19:41:30.738Z,33.80
2022-10-17T19:43:59.611Z,35.40
2022-10-17T19:46:29.158Z,32.40
2022-10-17T19:48:56.934Z,33.10
2022-10-17T19:51:25.195Z,32.83
2022-10-17T19:53:53.948Z,34.80
2022-10-17T19:56:22.064Z,32.55
2022-10-17T19:58:50.215Z,34.25
2022-10-17T20:01:19.597Z,34.42
2022-10-17T20:03:46.971Z,53.63
2022-10-17T20:06:14.563Z,36.67
2022-10-17T20:08:42.990Z,36.83
2022-10-17T20:11:13.182Z,34.08
2022-10-17T20:13:40.881Z,35.97
2022-10-17T20:16:11.244Z,34.78
2022-10-17T20:18:38.443Z,33.95
2022-10-17T20:21:08.884Z,34.00
2022-10-17T20:23:36.403Z,35.45
2022-10-17T20:26:25.325Z,34.78
2022-10-17T20:28:53.416Z,32.78
2022-10-17T20:31:20.891Z,32.63
2022-10-17T20:33:47.843Z,33.08
2022-10-17T20:36:15.196Z,32.85
2022-10-17T20:38:42.204Z,32.60
2022-10-17T20:41:10.237Z,34.90
2022-10-17T20:43:37.585Z,32.42
2022-10-17T20:46:22.946Z,34.90
2022-10-17T20:48:54.870Z,34.78
2022-10-17T20:51:21.949Z,33.13
2022-10-17T20:53:49.202Z,32.40
2022-10-17T20:56:29.147Z,33.38
2022-10-17T20:59:00.754Z,30.10
2022-10-17T21:01:29.625Z,31.40
2022-10-17T21:03:59.703Z,34.25
2022-10-17T21:08:56.668Z,31.25
2022-10-17T21:11:28.172Z,31.95
2022-10-17T21:14:01.573Z,34.58
2022-10-17T21:16:29.954Z,33.45
2022-10-17T21:18:57.891Z,28.90
2022-10-17T21:21:30.265Z,32.97
2022-10-17T21:24:00.836Z,30.75
2022-10-17T21:26:28.382Z,31.50
2022-10-17T21:28:55.478Z,30.45
2022-10-17T21:31:24.873Z,30.60
2022-10-17T21:34:05.350Z,33.28
2022-10-17T21:36:32.295Z,32.50
2022-10-17T21:38:59.170Z,30.52
2022-10-17T21:41:28.098Z,30.13
2022-10-17T21:44:06.169Z,31.52
2022-10-17T21:46:33.905Z,32.47
2022-10-17T21:49:01.514Z,30.08
2022-10-17T21:51:29.319Z,29.92
2022-10-17T21:53:57.624Z,29.13
2022-10-17T21:56:33.590Z,29.10
2022-10-17T21:59:00.996Z,30.88
2022-10-17T22:01:33.922Z,29.33
2022-10-17T22:06:39.796Z,29.25
2022-10-17T22:09:16.876Z,30.50
2022-10-17T22:11:47.214Z,30.08
2022-10-17T22:14:16.903Z,29.70
2022-10-17T22:16:47.388Z,29.83
2022-10-17T22:19:17.694Z,29.02
2022-10-17T22:21:44.827Z,28.70
2022-10-17T22:24:14.555Z,29.58
2022-10-17T22:26:42.511Z,28.77
2022-10-17T22:29:10.363Z,30.38
2022-10-17T22:31:38.513Z,30.33
2022-10-17T22:34:07.079Z,30.15
2022-10-17T22:36:34.575Z,31.35
2022-10-17T22:39:01.926Z,33.72
2022-10-17T22:41:29.003Z,32.63
2022-10-17T22:43:56.118Z,31.33
2022-10-17T22:46:23.219Z,30.67
2022-10-17T22:48:50.111Z,29.77
2022-10-17T22:51:17.553Z,30.13
2022-10-17T22:53:44.628Z,30.02
2022-10-17T22:56:14.410Z,28.98
2022-10-17T22:58:41.577Z,29.17
2022-10-17T23:01:13.404Z,29.15
2022-10-17T23:03:40.371Z,28.35
2022-10-17T23:06:07.554Z,28.90
2022-10-17T23:08:34.956Z,29.60
2022-10-17T23:11:01.947Z,28.27
2022-10-17T23:13:28.907Z,27.60
2022-10-17T23:15:57.346Z,29.60
2022-10-17T23:18:25.926Z,28.30
2022-10-17T23:20:53.350Z,28.63
2022-10-17T23:23:21.040Z,28.15
2022-10-17T23:25:48.075Z,27.88
2022-10-17T23:28:15.059Z,29.08
2022-10-17T23:30:42.282Z,27.52
2022-10-17T23:33:12.132Z,30.15
2022-10-17T23:35:39.114Z,29.67
2022-10-17T23:38:06.078Z,28.67
2022-10-17T23:40:32.968Z,30.15
2022-10-17T23:42:59.887Z,29.20
2022-10-17T23:45:26.919Z,28.77
2022-10-17T23:47:53.835Z,28.67
2022-10-17T23:50:20.927Z,28.50
2022-10-17T23:52:47.880Z,28.10
2022-10-17T23:55:14.853Z,28.10
2022-10-17T23:57:41.741Z,27.38
